Impacts METAR Board INFO
IDs:

KMDW - Chicago/Midway Intl, IL, US

Updated at: 1309 UTC 19 Jan 2018
Potential Impact None Slight Moderate High
Time19/01Z 19/02Z 19/03Z 19/04Z 19/05Z 19/06Z 19/07Z 19/08Z 19/09Z 19/10Z 19/11Z 19/12Z 19/13Z
VIS10 10 10 10 10 10 10 10 10 10 10 10 10
CIG-- -- -- -- -- -- -- -- -- -- -- -- --
CoverFEWFEWFEWFEWFEWCLRFEWFEWFEWFEWFEWSCTFEW
FltCatVFRVFRVFRVFRVFRVFRVFRVFRVFRVFRVFRVFRVFR
WX--------------------------
WDir210200220210210220220210210220220210220
WSpd10 13 10 10 12 9 12 9 10 11 11 12 12
WGst18 -- -- -- -- -- -- -- -- -- -- 23 --
Raw hourly METARs
KMDW 190053Z 21010G18KT 10SM FEW250 M01/M06 A3002 RMK AO2 SLP181 T10061061
KMDW 190153Z 20013KT 10SM FEW250 M01/M06 A3000 RMK AO2 SLP174 T10061056
KMDW 190253Z 22010KT 10SM FEW250 M01/M06 A2999 RMK AO2 SLP171 T10061061 58010
KMDW 190353Z 21010KT 10SM FEW250 M01/M06 A3000 RMK AO2 SLP173 T10061061
KMDW 190453Z 21012KT 10SM FEW250 M01/M07 A2999 RMK AO2 SLP169 T10111067
KMDW 190553Z 22009KT 10SM CLR M02/M07 A2998 RMK AO2 SLP164 4/001 T10221067 10000 21022 400061083 58005
KMDW 190653Z 22012KT 10SM FEW250 M02/M07 A2995 RMK AO2 SLP155 T10171067
KMDW 190753Z 21009KT 10SM FEW250 M02/M07 A2995 RMK AO2 SLP155 T10171072
KMDW 190853Z 21010KT 10SM FEW250 M02/M07 A2995 RMK AO2 SLP154 T10221072 56008
KMDW 190953Z 22011KT 10SM FEW250 M02/M07 A2994 RMK AO2 SLP151 T10171067
KMDW 191053Z 22011KT 10SM FEW250 M02/M07 A2993 RMK AO2 SLP149 T10171067
KMDW 191153Z 21012G23KT 10SM SCT250 M02/M07 A2991 RMK AO2 SLP141 4/001 T10171067 11011 21022 58013
KMDW 191253Z 22012KT 10SM FEW250 M01/M07 A2992 RMK AO2 SLP143 T10111072